Terminal Aerodrome Forecast
Issued by NWS

Home | Current Version | Previous Version | Text Only | Print | Product List | Glossary Off
Versions: 1 2 3 4 5 6 7 8 9 10 11 12 13 14

000
FTUS43 KOAX 171700
TAFCDR
TAF
KCDR 171721Z 1718/1818 10006KT P6SM FEW100
     FM180200 13005KT P6SM BKN100
     FM181000 18004KT 5SM BR BKN025
     FM181400 19007KT P6SM FEW100=

USA.gov is the U.S. government's official web portal to all federal, state and local government web resources and services.